Time;durP1;ratioP1;P1;durP2;ratioP2;P2;SDS_P1;SDS_P2;PMS_P1;PMS_P2;Temp;Humidity;BMP_temperature;BMP_pressure;BME280_temperature;BME280_humidity;BME280_pressure;Samples;Min_cycle;Max_cycle;Signal;HPM_P1;HPM_P2
2023/09/08 00:01:53;;;;;;;7.25;5.03;;;26.10;49.20;;;;;;5074956;28;20065;-76
2023/09/08 00:04:20;;;;;;;8.82;4.38;;;26.00;49.20;;;;;;5093131;28;20024;-76
2023/09/08 00:06:46;;;;;;;11.20;5.30;;;26.10;49.30;;;;;;5079168;22;20130;-74
2023/09/08 00:09:12;;;;;;;8.23;4.80;;;26.00;49.20;;;;;;5088454;28;20070;-75
2023/09/08 00:11:38;;;;;;;6.72;4.80;;;26.00;49.40;;;;;;5092934;28;20035;-75
2023/09/08 00:14:04;;;;;;;8.63;4.95;;;26.00;49.30;;;;;;5093775;28;20036;-74
2023/09/08 00:16:30;;;;;;;8.70;4.65;;;26.00;49.10;;;;;;5075650;28;20059;-75
2023/09/08 00:18:58;;;;;;;7.40;4.70;;;26.00;49.30;;;;;;5093332;28;20085;-74
2023/09/08 00:21:24;;;;;;;7.72;4.68;;;25.90;49.40;;;;;;5093300;28;20119;-76
2023/09/08 00:23:51;;;;;;;10.13;5.10;;;26.00;49.50;;;;;;5093072;28;20142;-69
2023/09/08 00:26:17;;;;;;;9.88;4.88;;;26.00;49.50;;;;;;5092611;28;20028;-75
2023/09/08 00:28:42;;;;;;;6.45;4.70;;;26.00;49.60;;;;;;5092788;28;20548;-74
2023/09/08 00:31:08;;;;;;;6.88;4.60;;;26.00;49.20;;;;;;5096560;28;20030;-75
2023/09/08 00:33:34;;;;;;;7.97;4.65;;;26.00;49.40;;;;;;5093084;28;20086;-77
2023/09/08 00:36:00;;;;;;;8.73;4.68;;;26.00;49.30;;;;;;5098278;28;20067;-75
2023/09/08 00:38:26;;;;;;;6.22;4.88;;;26.10;49.30;;;;;;5112988;28;20043;-74
2023/09/08 00:40:52;;;;;;;7.45;4.82;;;26.10;49.50;;;;;;5098606;28;20464;-75
2023/09/08 00:43:18;;;;;;;6.47;5.07;;;26.00;49.30;;;;;;5092705;28;20065;-75
2023/09/08 00:45:45;;;;;;;8.38;5.25;;;25.90;49.40;;;;;;5092443;28;20108;-76
2023/09/08 00:48:12;;;;;;;7.50;5.60;;;25.90;49.70;;;;;;5092440;28;20083;-75
2023/09/08 00:50:38;;;;;;;9.60;5.20;;;25.90;49.90;;;;;;5103397;28;20035;-75
2023/09/08 00:53:06;;;;;;;6.93;4.70;;;25.90;49.90;;;;;;5112682;28;20035;-75
2023/09/08 00:55:32;;;;;;;8.32;5.40;;;25.80;50.30;;;;;;5113082;28;20058;-75
2023/09/08 00:57:59;;;;;;;9.27;5.53;;;25.80;50.20;;;;;;5112877;28;20479;-76
2023/09/08 01:00:25;;;;;;;7.85;5.32;;;25.80;50.40;;;;;;5112559;28;20026;-76
2023/09/08 01:02:51;;;;;;;11.50;5.75;;;25.80;50.30;;;;;;5112765;28;20410;-75
2023/09/08 01:05:17;;;;;;;10.18;5.25;;;25.80;50.40;;;;;;5128465;28;20131;-76
2023/09/08 01:07:45;;;;;;;7.80;5.53;;;25.80;50.40;;;;;;5112987;28;20101;-75
2023/09/08 01:10:11;;;;;;;6.82;4.70;;;25.90;50.50;;;;;;5112549;28;20201;-75
2023/09/08 01:12:37;;;;;;;8.60;5.53;;;25.80;50.50;;;;;;5092725;28;20514;-74
2023/09/08 01:15:06;;;;;;;9.10;5.70;;;25.80;50.50;;;;;;5109254;28;20067;-73
2023/09/08 01:17:35;;;;;;;8.70;5.75;;;25.80;50.50;;;;;;5112608;28;20035;-75
2023/09/08 01:20:17;;;;;;;8.07;5.20;;;25.80;50.60;;;;;;5112397;28;20474;-76
2023/09/08 01:23:24;;;;;;;8.57;5.40;;;25.70;51.00;;;;;;5112730;28;20069;-76
2023/09/08 01:26:04;;;;;;;7.40;5.38;;;25.70;50.90;;;;;;5103503;28;20032;-75
2023/09/08 01:28:32;;;;;;;7.75;5.07;;;25.70;51.10;;;;;;5111210;28;20039;-74
2023/09/08 01:30:58;;;;;;;7.70;5.15;;;25.70;51.20;;;;;;5112860;28;20035;-75
2023/09/08 01:33:24;;;;;;;8.25;5.60;;;25.70;51.30;;;;;;5112772;28;20036;-75
2023/09/08 01:35:51;;;;;;;9.25;5.10;;;25.70;51.30;;;;;;5112505;28;20031;-73
2023/09/08 01:38:16;;;;;;;11.50;5.75;;;25.70;51.50;;;;;;5112470;28;20034;-75
2023/09/08 01:40:42;;;;;;;9.00;5.10;;;25.70;51.40;;;;;;5113065;28;20048;-76
2023/09/08 01:43:08;;;;;;;8.25;5.63;;;25.70;51.40;;;;;;5116392;28;20039;-73
2023/09/08 01:45:33;;;;;;;9.50;5.30;;;25.60;51.20;;;;;;5116307;28;20111;-74
2023/09/08 01:47:59;;;;;;;8.82;5.07;;;25.60;51.20;;;;;;5116797;28;20112;-76
2023/09/08 01:50:25;;;;;;;9.88;5.65;;;25.50;51.00;;;;;;5116588;28;20059;-76
2023/09/08 01:52:51;;;;;;;6.78;5.13;;;25.50;51.00;;;;;;5098212;28;20036;-74
2023/09/08 01:55:17;;;;;;;10.73;4.97;;;25.50;51.30;;;;;;5116136;28;20398;-75
2023/09/08 01:57:44;;;;;;;10.57;5.10;;;25.40;51.30;;;;;;5115834;28;20028;-75
2023/09/08 02:00:11;;;;;;;10.02;5.30;;;25.30;51.40;;;;;;5116061;28;20038;-74
2023/09/08 02:02:37;;;;;;;7.65;5.00;;;25.30;51.70;;;;;;5116110;28;20086;-75
2023/09/08 02:05:03;;;;;;;11.18;5.45;;;25.30;51.30;;;;;;5097797;28;20486;-73
2023/09/08 02:07:29;;;;;;;6.97;4.82;;;25.30;51.90;;;;;;5116003;28;20111;-74
2023/09/08 02:09:54;;;;;;;12.10;4.97;;;25.30;51.20;;;;;;5097563;28;20458;-75
2023/09/08 02:12:21;;;;;;;8.82;4.70;;;25.30;51.20;;;;;;5115697;28;20039;-76
2023/09/08 02:14:47;;;;;;;10.48;4.80;;;25.30;51.10;;;;;;5115506;28;20028;-76
2023/09/08 02:17:13;;;;;;;10.60;4.72;;;25.30;50.80;;;;;;5115406;28;20038;-75
2023/09/08 02:19:38;;;;;;;7.93;5.10;;;25.20;50.60;;;;;;5115667;28;20054;-74
2023/09/08 02:22:04;;;;;;;7.80;4.90;;;25.20;50.80;;;;;;5115729;28;20047;-75
2023/09/08 02:24:30;;;;;;;6.93;4.40;;;25.20;50.80;;;;;;5115737;28;20076;-77
2023/09/08 02:26:56;;;;;;;7.15;4.43;;;25.10;50.60;;;;;;5115630;28;20059;-75
2023/09/08 02:29:22;;;;;;;10.43;5.28;;;25.10;50.60;;;;;;5115719;28;20028;-75
2023/09/08 02:31:48;;;;;;;8.07;4.40;;;25.10;50.70;;;;;;5115598;28;20035;-74
2023/09/08 02:34:14;;;;;;;8.60;5.43;;;25.10;50.60;;;;;;5115712;28;20395;-74
2023/09/08 02:36:40;;;;;;;9.90;5.10;;;25.00;50.70;;;;;;5115634;28;20032;-75
2023/09/08 02:39:06;;;;;;;7.70;4.90;;;25.10;50.70;;;;;;5100541;28;20391;-76
2023/09/08 02:41:34;;;;;;;7.30;4.65;;;25.10;50.80;;;;;;5139611;28;20047;-75
2023/09/08 02:43:59;;;;;;;7.03;4.70;;;25.00;50.60;;;;;;5120860;28;20051;-74
2023/09/08 02:46:25;;;;;;;8.93;6.15;;;25.00;50.80;;;;;;5115382;28;20368;-74
2023/09/08 02:48:52;;;;;;;7.70;4.40;;;25.00;50.60;;;;;;5096735;28;20039;-74
2023/09/08 02:51:18;;;;;;;8.98;4.88;;;25.00;50.70;;;;;;5115041;28;20081;-75
2023/09/08 02:53:44;;;;;;;6.97;4.70;;;25.00;50.50;;;;;;5114979;28;20035;-74
2023/09/08 02:56:09;;;;;;;7.72;4.85;;;25.00;50.20;;;;;;5115149;28;20032;-76
2023/09/08 02:58:35;;;;;;;9.30;5.05;;;24.90;50.30;;;;;;5114939;28;20043;-74
2023/09/08 03:01:15;;;;;;;6.80;4.85;;;25.00;50.60;;;;;;5114733;28;20435;-75
2023/09/08 03:03:42;;;;;;;7.65;4.55;;;25.00;50.60;;;;;;5114975;28;20036;-74
2023/09/08 03:06:08;;;;;;;8.05;5.15;;;24.90;50.50;;;;;;5114798;28;20131;-75
2023/09/08 03:08:36;;;;;;;10.77;4.55;;;24.90;50.70;;;;;;5114870;28;20111;-76
2023/09/08 03:11:03;;;;;;;6.88;4.53;;;24.90;50.60;;;;;;5114495;28;20394;-75
2023/09/08 03:13:29;;;;;;;7.97;4.40;;;24.90;50.70;;;;;;5112673;28;20501;-77
2023/09/08 03:15:56;;;;;;;6.68;4.38;;;24.90;50.80;;;;;;5102330;28;20107;-75
2023/09/08 03:18:22;;;;;;;7.53;4.55;;;24.80;50.70;;;;;;5114478;28;20103;-75
2023/09/08 03:20:49;;;;;;;8.98;4.72;;;24.80;50.70;;;;;;5095507;28;20054;-73
2023/09/08 03:23:15;;;;;;;10.60;4.80;;;24.80;51.00;;;;;;5093716;28;20051;-75
2023/09/08 03:25:41;;;;;;;8.98;4.57;;;24.80;50.90;;;;;;5093847;28;20032;-76
2023/09/08 03:28:07;;;;;;;7.15;5.40;;;24.80;51.00;;;;;;5093938;28;20053;-75
2023/09/08 03:30:33;;;;;;;6.93;4.47;;;24.80;50.90;;;;;;5093869;28;20107;-73
2023/09/08 03:32:58;;;;;;;7.28;4.82;;;24.70;51.00;;;;;;5093915;28;20076;-74
2023/09/08 03:35:24;;;;;;;8.02;4.60;;;24.70;51.00;;;;;;5093616;28;20088;-74
2023/09/08 03:37:50;;;;;;;10.43;4.60;;;24.70;50.90;;;;;;5093912;28;20036;-77
2023/09/08 03:40:15;;;;;;;7.53;4.68;;;24.70;50.70;;;;;;5093664;28;20050;-74
2023/09/08 03:42:42;;;;;;;9.85;4.53;;;24.70;50.90;;;;;;5093743;28;20506;-74
2023/09/08 03:45:08;;;;;;;11.18;5.20;;;24.70;50.90;;;;;;5093461;28;20502;-75
2023/09/08 03:47:34;;;;;;;9.18;4.68;;;24.70;50.80;;;;;;5093556;28;20043;-75
2023/09/08 03:50:00;;;;;;;8.73;5.10;;;24.70;50.70;;;;;;5093450;28;20395;-74
2023/09/08 03:52:26;;;;;;;9.05;5.18;;;24.70;51.00;;;;;;5093511;28;20039;-76
2023/09/08 03:54:51;;;;;;;11.57;5.20;;;24.70;50.80;;;;;;5093711;28;20024;-75
2023/09/08 03:57:17;;;;;;;7.47;4.72;;;24.70;51.00;;;;;;5093482;28;20470;-74
2023/09/08 03:59:43;;;;;;;12.50;5.25;;;24.60;50.80;;;;;;5093024;28;20024;-74
2023/09/08 04:02:09;;;;;;;8.80;4.72;;;24.60;50.80;;;;;;5093412;28;20071;-76
2023/09/08 04:04:34;;;;;;;9.90;5.10;;;24.60;51.00;;;;;;5092870;28;20454;-75
2023/09/08 04:07:00;;;;;;;8.25;4.80;;;24.50;50.80;;;;;;5093151;28;20044;-74
2023/09/08 04:09:27;;;;;;;8.55;4.82;;;24.50;50.90;;;;;;5093063;28;20075;-75
2023/09/08 04:11:54;;;;;;;7.18;4.25;;;24.50;50.90;;;;;;5093552;28;20039;-75
2023/09/08 04:14:21;;;;;;;10.40;4.18;;;24.40;50.90;;;;;;5092988;28;20036;-76
2023/09/08 04:16:46;;;;;;;10.23;4.75;;;24.40;51.10;;;;;;5093217;28;20055;-75
2023/09/08 04:19:12;;;;;;;7.43;4.75;;;24.40;51.00;;;;;;5093132;28;20028;-75
2023/09/08 04:21:38;;;;;;;10.82;4.53;;;24.40;51.00;;;;;;5092909;28;20438;-74
2023/09/08 04:24:04;;;;;;;8.80;4.78;;;24.40;51.00;;;;;;5098311;28;20062;-74
2023/09/08 04:26:31;;;;;;;8.13;4.32;;;24.40;51.20;;;;;;5106293;28;20035;-76
2023/09/08 04:28:56;;;;;;;10.63;5.00;;;24.30;51.20;;;;;;5113588;28;20102;-77
2023/09/08 04:31:22;;;;;;;10.25;4.95;;;24.30;51.20;;;;;;5091695;28;20114;-75
2023/09/08 04:33:48;;;;;;;11.23;4.72;;;24.20;51.40;;;;;;5113211;28;20028;-76
2023/09/08 04:36:15;;;;;;;5.95;4.40;;;24.20;51.40;;;;;;5114071;28;20040;-75
2023/09/08 04:38:41;;;;;;;8.70;4.50;;;24.10;51.30;;;;;;5097319;28;20035;-76
2023/09/08 04:41:07;;;;;;;7.05;4.50;;;24.00;51.50;;;;;;5132627;28;20133;-74
2023/09/08 04:43:32;;;;;;;9.10;4.70;;;24.00;51.60;;;;;;5127222;28;20047;-75
2023/09/08 04:45:58;;;;;;;9.52;4.75;;;24.00;51.50;;;;;;5113356;28;20024;-77
2023/09/08 04:48:24;;;;;;;7.20;4.43;;;24.10;51.70;;;;;;5113315;28;20040;-74
2023/09/08 04:50:51;;;;;;;7.35;4.85;;;24.10;51.70;;;;;;5111824;28;20024;-77
2023/09/08 04:53:17;;;;;;;8.48;4.88;;;24.00;51.70;;;;;;5074167;28;20056;-77
2023/09/08 04:55:43;;;;;;;8.40;4.97;;;24.00;51.70;;;;;;5092633;28;20035;-76
2023/09/08 04:58:09;;;;;;;8.82;4.82;;;24.00;51.80;;;;;;5074564;28;20039;-77
2023/09/08 05:00:34;;;;;;;12.38;5.40;;;24.00;51.80;;;;;;5092706;28;20036;-77
2023/09/08 05:03:00;;;;;;;8.60;5.03;;;24.00;51.70;;;;;;5092466;28;20044;-77
2023/09/08 05:05:26;;;;;;;8.32;5.30;;;24.10;51.80;;;;;;5090555;28;20040;-77
2023/09/08 05:07:55;;;;;;;6.75;4.43;;;24.00;51.70;;;;;;5095136;28;20407;-76
2023/09/08 05:10:24;;;;;;;9.15;4.88;;;24.10;51.80;;;;;;5094618;28;20119;-74
2023/09/08 05:12:49;;;;;;;5.38;4.18;;;24.10;51.70;;;;;;5092515;28;20032;-76
2023/09/08 05:15:16;;;;;;;8.50;5.13;;;24.10;51.70;;;;;;5095391;28;20034;-74
2023/09/08 05:17:42;;;;;;;7.07;4.60;;;24.10;51.70;;;;;;5116610;28;20054;-76
2023/09/08 05:20:09;;;;;;;10.27;5.22;;;24.10;51.80;;;;;;5113177;28;20123;-74
2023/09/08 05:22:35;;;;;;;8.75;4.80;;;24.00;51.80;;;;;;5113817;28;20423;-76
2023/09/08 05:25:00;;;;;;;8.52;4.80;;;24.00;52.00;;;;;;5098854;28;20035;-76
2023/09/08 05:27:26;;;;;;;8.90;4.72;;;24.00;52.00;;;;;;5096139;28;20032;-76
2023/09/08 05:29:52;;;;;;;11.90;5.28;;;24.00;52.00;;;;;;5096360;28;20137;-75
2023/09/08 05:32:18;;;;;;;9.60;5.55;;;24.10;51.80;;;;;;5095832;28;20032;-73
2023/09/08 05:34:43;;;;;;;9.85;5.20;;;24.10;51.90;;;;;;5097843;28;20081;-75
2023/09/08 05:37:09;;;;;;;10.55;5.38;;;24.10;51.80;;;;;;5096575;28;20035;-73
2023/09/08 05:39:35;;;;;;;8.32;5.13;;;24.10;51.80;;;;;;5095604;28;20032;-73
2023/09/08 05:42:01;;;;;;;9.57;4.95;;;24.20;52.00;;;;;;5075746;28;20406;-74
2023/09/08 05:44:26;;;;;;;9.88;5.20;;;24.20;51.80;;;;;;5106032;28;20127;-74
2023/09/08 05:46:52;;;;;;;8.52;5.10;;;24.20;51.80;;;;;;5105706;28;20357;-75
2023/09/08 05:49:18;;;;;;;13.25;5.43;;;24.30;51.80;;;;;;5101559;28;20102;-72
2023/09/08 05:51:44;;;;;;;9.45;5.93;;;24.40;51.80;;;;;;5106840;28;20078;-74
2023/09/08 05:54:10;;;;;;;10.80;5.80;;;24.60;51.60;;;;;;5115752;28;20036;-75
2023/09/08 05:56:37;;;;;;;8.60;4.97;;;24.90;51.30;;;;;;5116012;28;20081;-73
2023/09/08 05:59:03;;;;;;;15.90;5.97;;;25.20;50.90;;;;;;5115953;28;20055;-74
2023/09/08 06:01:30;;;;;;;7.40;5.07;;;25.50;50.30;;;;;;5116052;28;20042;-75
2023/09/08 06:03:56;;;;;;;16.95;6.60;;;25.70;50.10;;;;;;5115992;28;20100;-75
2023/09/08 06:06:22;;;;;;;15.45;6.18;;;25.90;50.10;;;;;;5088243;28;20547;-86
2023/09/08 06:08:48;;;;;;;7.90;5.00;;;26.10;49.40;;;;;;5113838;28;20519;-84
2023/09/08 06:11:14;;;;;;;13.05;5.22;;;26.20;49.10;;;;;;5117758;28;20038;-84
2023/09/08 06:13:40;;;;;;;14.18;5.60;;;26.30;48.90;;;;;;5119590;28;20038;-83
2023/09/08 06:16:05;;;;;;;8.52;4.90;;;26.30;48.70;;;;;;5121870;28;20111;-82
2023/09/08 06:18:31;;;;;;;11.98;5.20;;;26.40;49.10;;;;;;5117380;28;20028;-85
2023/09/08 06:20:57;;;;;;;10.18;5.47;;;26.50;48.70;;;;;;5114606;28;20394;-85
2023/09/08 06:23:23;;;;;;;7.82;4.45;;;26.60;48.30;;;;;;5096206;28;20047;-84
2023/09/08 06:25:49;;;;;;;11.95;5.43;;;26.80;48.20;;;;;;5116053;28;20467;-85
2023/09/08 06:28:15;;;;;;;8.73;5.38;;;26.90;48.00;;;;;;5115384;28;20031;-78
2023/09/08 06:30:41;;;;;;;13.50;5.80;;;27.10;47.70;;;;;;5114573;28;20040;-81
2023/09/08 06:33:10;;;;;;;15.27;5.95;;;27.20;47.50;;;;;;5095947;28;20036;-83
2023/09/08 06:35:36;;;;;;;14.85;5.80;;;27.40;47.60;;;;;;5104663;28;20065;-81
2023/09/08 06:38:01;;;;;;;14.88;5.82;;;27.50;47.00;;;;;;5124797;28;20375;-82
2023/09/08 06:40:30;;;;;;;13.80;5.60;;;27.80;47.00;;;;;;5135056;28;20044;-78
2023/09/08 06:42:56;;;;;;;9.07;5.32;;;27.90;46.70;;;;;;5139026;28;20028;-79
2023/09/08 06:45:22;;;;;;;9.27;4.82;;;28.10;46.50;;;;;;5136983;28;20073;-81
2023/09/08 06:47:50;;;;;;;8.63;4.70;;;28.20;46.30;;;;;;5119565;28;20032;-81
2023/09/08 06:50:15;;;;;;;12.10;5.82;;;28.30;46.10;;;;;;5116227;28;20085;-82
2023/09/08 06:52:41;;;;;;;12.05;5.57;;;28.30;46.70;;;;;;5116060;28;20055;-81
2023/09/08 06:55:07;;;;;;;9.48;5.03;;;28.30;45.90;;;;;;5115804;28;20443;-82
2023/09/08 06:57:33;;;;;;;10.98;5.28;;;28.30;45.60;;;;;;5115345;28;20441;-85
2023/09/08 06:59:58;;;;;;;8.90;4.88;;;28.20;45.80;;;;;;5116427;28;20048;-84
2023/09/08 07:02:24;;;;;;;11.07;5.50;;;28.20;46.10;;;;;;5116014;28;20495;-83
2023/09/08 07:04:50;;;;;;;9.45;5.43;;;28.20;46.50;;;;;;5115885;28;20027;-81
2023/09/08 07:07:18;;;;;;;8.95;5.15;;;28.30;45.80;;;;;;5114579;28;20050;-81
2023/09/08 07:09:43;;;;;;;9.25;4.80;;;28.30;45.80;;;;;;5115308;28;20078;-82
2023/09/08 07:12:09;;;;;;;10.52;5.18;;;28.30;45.60;;;;;;5116250;28;20061;-82
2023/09/08 07:14:35;;;;;;;10.32;5.00;;;28.40;45.70;;;;;;5116914;28;20043;-82
2023/09/08 07:17:00;;;;;;;8.52;5.03;;;28.40;45.70;;;;;;5115278;28;20032;-82
2023/09/08 07:19:27;;;;;;;10.20;5.07;;;28.50;45.60;;;;;;5115101;28;20392;-82
2023/09/08 07:21:53;;;;;;;9.27;4.97;;;28.60;45.70;;;;;;5116125;28;20490;-82
2023/09/08 07:24:19;;;;;;;7.80;5.53;;;28.70;45.40;;;;;;5097981;28;20135;-83
2023/09/08 07:26:44;;;;;;;9.75;5.15;;;28.70;45.50;;;;;;5118812;28;20046;-83
2023/09/08 07:29:11;;;;;;;11.02;5.65;;;28.80;45.30;;;;;;5115445;28;20105;-81
2023/09/08 07:31:38;;;;;;;9.35;5.88;;;28.80;45.10;;;;;;5114786;28;20397;-81
2023/09/08 07:34:04;;;;;;;10.40;5.28;;;28.70;45.50;;;;;;5096844;28;20372;-82
2023/09/08 07:36:29;;;;;;;13.60;5.22;;;28.70;45.50;;;;;;5114815;28;20042;-81
2023/09/08 07:38:55;;;;;;;12.25;5.20;;;28.80;45.40;;;;;;5095656;28;20035;-83
2023/09/08 07:41:21;;;;;;;8.98;5.43;;;28.70;45.40;;;;;;5114579;28;20414;-81
2023/09/08 07:43:47;;;;;;;8.82;4.97;;;28.80;45.50;;;;;;5114705;28;20047;-81
2023/09/08 07:46:12;;;;;;;10.30;4.95;;;28.80;45.30;;;;;;5114104;28;20035;-82
2023/09/08 07:48:38;;;;;;;10.18;5.00;;;28.70;45.40;;;;;;5114606;28;20039;-82
2023/09/08 07:51:04;;;;;;;8.10;5.40;;;28.70;45.50;;;;;;5115174;28;20031;-82
2023/09/08 07:53:29;;;;;;;10.02;5.43;;;28.70;45.40;;;;;;5114687;28;20367;-82
2023/09/08 07:55:55;;;;;;;10.07;5.13;;;28.60;45.50;;;;;;5114536;28;20056;-82
2023/09/08 07:58:22;;;;;;;9.20;5.43;;;28.50;45.50;;;;;;5114425;28;20082;-82
2023/09/08 08:00:48;;;;;;;11.93;7.88;;;28.50;45.60;;;;;;5114554;28;20028;-82
2023/09/08 08:03:13;;;;;;;11.70;7.80;;;28.50;45.40;;;;;;5114138;28;20080;-83
2023/09/08 08:05:39;;;;;;;9.90;5.25;;;28.40;45.70;;;;;;5116277;28;20515;-83
2023/09/08 08:08:05;;;;;;;8.73;5.55;;;28.40;45.70;;;;;;5120695;28;20047;-82
2023/09/08 08:10:32;;;;;;;12.18;5.97;;;28.30;45.60;;;;;;5123863;28;20047;-81
2023/09/08 08:12:57;;;;;;;7.03;4.97;;;28.30;45.90;;;;;;5119973;28;20562;-81
2023/09/08 08:15:34;;;;;;;8.55;5.53;;;28.20;46.00;;;;;;5119568;28;20215;-82
2023/09/08 08:18:00;;;;;;;12.57;5.50;;;28.20;46.20;;;;;;5115364;28;20047;-82
2023/09/08 08:20:25;;;;;;;9.10;5.30;;;28.10;46.00;;;;;;5113714;28;20023;-83
2023/09/08 08:22:51;;;;;;;10.95;5.22;;;28.00;46.10;;;;;;5113700;28;20069;-82
2023/09/08 08:25:17;;;;;;;11.43;5.50;;;28.00;46.30;;;;;;5115902;28;20031;-82
2023/09/08 08:27:43;;;;;;;11.48;5.32;;;27.90;46.30;;;;;;5095169;28;20562;-82
2023/09/08 08:30:11;;;;;;;12.00;5.10;;;27.90;46.30;;;;;;5113450;28;20024;-83
2023/09/08 08:32:36;;;;;;;10.95;4.88;;;27.90;46.10;;;;;;5113493;28;20035;-82
2023/09/08 08:35:04;;;;;;;10.57;4.95;;;27.80;46.40;;;;;;5114404;28;20046;-81
2023/09/08 08:37:30;;;;;;;11.15;5.07;;;27.80;46.20;;;;;;5115168;28;20059;-81
2023/09/08 08:39:55;;;;;;;6.97;4.93;;;27.90;46.70;;;;;;5094930;28;20446;-83
2023/09/08 08:42:24;;;;;;;11.25;5.22;;;27.90;46.70;;;;;;5094900;28;20054;-82
2023/09/08 08:44:50;;;;;;;9.05;4.57;;;28.00;46.10;;;;;;5119539;28;20036;-80
2023/09/08 08:47:16;;;;;;;9.70;5.05;;;28.00;46.80;;;;;;5126216;28;20027;-82
2023/09/08 08:49:46;;;;;;;12.45;5.25;;;28.00;46.90;;;;;;5113179;28;20082;-82
2023/09/08 08:52:14;;;;;;;8.50;5.07;;;28.00;46.90;;;;;;5112726;28;20039;-81
2023/09/08 08:54:40;;;;;;;12.85;5.50;;;28.10;47.10;;;;;;5112706;28;20027;-83
2023/09/08 08:57:07;;;;;;;15.95;9.43;;;28.10;47.10;;;;;;5112596;28;20084;-82
2023/09/08 08:59:33;;;;;;;15.40;6.38;;;28.20;47.00;;;;;;5114340;28;20195;-81
2023/09/08 09:01:59;;;;;;;10.15;5.68;;;28.20;46.80;;;;;;5116796;28;20113;-82
2023/09/08 09:04:26;;;;;;;9.00;5.47;;;28.20;46.70;;;;;;5113907;28;20032;-82
2023/09/08 09:06:53;;;;;;;11.25;5.80;;;28.20;46.90;;;;;;5113338;28;20055;-83
2023/09/08 09:09:20;;;;;;;9.63;5.20;;;28.30;47.00;;;;;;5095259;28;20375;-82
2023/09/08 09:11:46;;;;;;;9.75;5.57;;;28.20;47.20;;;;;;5113167;28;20038;-82
2023/09/08 09:14:11;;;;;;;13.23;5.65;;;28.20;47.00;;;;;;5113210;28;20035;-83
2023/09/08 09:16:42;;;;;;;15.65;8.30;;;28.30;47.10;;;;;;5113514;28;20035;-82
2023/09/08 09:19:08;;;;;;;16.17;6.53;;;28.30;47.10;;;;;;5113808;28;20038;-82
2023/09/08 09:21:47;;;;;;;8.05;4.90;;;28.30;46.90;;;;;;5113478;28;20036;-83
2023/09/08 09:24:17;;;;;;;12.30;5.38;;;28.40;47.30;;;;;;5099046;28;20040;-82
2023/09/08 09:26:43;;;;;;;11.05;5.20;;;28.40;47.00;;;;;;5118016;28;20059;-82
2023/09/08 09:29:13;;;;;;;13.60;5.75;;;28.50;46.70;;;;;;5113110;28;20036;-82
2023/09/08 09:32:14;;;;;;;15.07;5.57;;;28.50;46.20;;;;;;5112870;28;20020;-84
2023/09/08 09:34:54;;;;;;;16.35;5.25;;;28.60;46.00;;;;;;5030296;28;20064;-82
2023/09/08 09:37:20;;;;;;;14.63;7.47;;;28.60;44.80;;;;;;5105113;28;20092;-83
2023/09/08 09:39:54;;;;;;;10.23;5.40;;;28.60;45.80;;;;;;5113276;28;20028;-82
2023/09/08 09:42:23;;;;;;;9.20;5.53;;;28.70;45.80;;;;;;5094890;28;20521;-84
2023/09/08 09:44:51;;;;;;;8.43;5.82;;;28.80;45.50;;;;;;5113051;28;20407;-81
2023/09/08 09:47:17;;;;;;;9.18;4.95;;;28.80;45.70;;;;;;5112912;28;20553;-82
2023/09/08 09:49:47;;;;;;;10.00;5.38;;;28.90;45.80;;;;;;5112893;28;20024;-82
2023/09/08 09:52:14;;;;;;;9.05;6.60;;;29.00;44.60;;;;;;5113451;28;20050;-81
2023/09/08 09:54:42;;;;;;;7.60;5.38;;;29.10;45.80;;;;;;5112890;28;20028;-80
2023/09/08 09:57:13;;;;;;;11.07;5.15;;;29.20;45.20;;;;;;5113735;28;20031;-83
2023/09/08 09:59:40;;;;;;;7.85;4.93;;;29.20;43.40;;;;;;5113365;28;20031;-81
2023/09/08 10:02:12;;;;;;;7.38;5.05;;;29.30;43.80;;;;;;5095923;28;20054;-80
2023/09/08 10:04:40;;;;;;;8.45;4.57;;;29.30;43.40;;;;;;5098576;28;20366;-84
2023/09/08 10:07:06;;;;;;;11.80;5.13;;;29.40;43.30;;;;;;5118343;28;20051;-81
2023/09/08 10:09:32;;;;;;;10.40;5.20;;;29.50;43.20;;;;;;5099043;28;20413;-83
2023/09/08 10:12:02;;;;;;;9.77;5.10;;;29.50;43.10;;;;;;5117241;28;20085;-84
2023/09/08 10:14:30;;;;;;;9.55;5.00;;;29.60;43.20;;;;;;5124113;28;20024;-82
2023/09/08 10:16:59;;;;;;;8.27;4.93;;;29.70;43.20;;;;;;5118603;28;20075;-83
2023/09/08 10:19:26;;;;;;;9.98;5.57;;;29.70;42.80;;;;;;5115851;28;20076;-82
2023/09/08 10:21:54;;;;;;;8.27;5.07;;;29.80;42.60;;;;;;5116222;28;20517;-82
2023/09/08 10:24:34;;;;;;;6.53;4.22;;;29.80;43.20;;;;;;5116020;28;20341;-82
2023/09/08 10:27:10;;;;;;;6.88;4.78;;;29.80;41.90;;;;;;5115826;28;20031;-82
2023/09/08 10:29:37;;;;;;;10.20;5.18;;;29.90;42.00;;;;;;5115835;28;20027;-82
2023/09/08 10:32:04;;;;;;;11.20;5.03;;;30.00;42.00;;;;;;5115612;28;20106;-83
2023/09/08 10:34:32;;;;;;;11.48;5.38;;;30.00;42.00;;;;;;5116011;28;20028;-84
2023/09/08 10:36:58;;;;;;;9.80;4.90;;;30.10;42.20;;;;;;5115864;28;20119;-83
2023/09/08 10:39:35;;;;;;;10.30;4.63;;;30.20;42.20;;;;;;5116157;28;20051;-83
2023/09/08 10:42:25;;;;;;;8.73;5.28;;;30.20;41.60;;;;;;5100856;28;20047;-82
2023/09/08 10:44:58;;;;;;;7.28;4.80;;;30.20;41.70;;;;;;5123041;28;20088;-82
2023/09/08 10:47:53;;;;;;;7.38;4.30;;;30.20;41.50;;;;;;5117183;28;20024;-82
2023/09/08 10:50:38;;;;;;;9.32;5.05;;;30.30;41.40;;;;;;5117258;28;20398;-82
2023/09/08 10:53:14;;;;;;;6.75;4.80;;;30.40;41.80;;;;;;5117500;28;20028;-82
2023/09/08 10:55:47;;;;;;;8.02;4.90;;;30.60;41.70;;;;;;5116093;28;20036;-83
2023/09/08 10:58:28;;;;;;;8.75;5.20;;;30.70;41.20;;;;;;5116051;28;20027;-82
2023/09/08 11:00:56;;;;;;;9.65;4.95;;;30.80;41.10;;;;;;5115724;28;20382;-82
2023/09/08 11:03:27;;;;;;;9.68;4.75;;;30.70;40.60;;;;;;5097548;28;20047;-85
2023/09/08 11:05:54;;;;;;;9.15;4.95;;;30.80;40.60;;;;;;5115481;28;20126;-83
2023/09/08 11:08:19;;;;;;;8.95;4.82;;;30.90;40.60;;;;;;5097074;28;20039;-83
2023/09/08 11:10:45;;;;;;;10.05;4.53;;;30.90;40.40;;;;;;5115684;28;20088;-82
2023/09/08 11:13:11;;;;;;;9.02;4.85;;;31.00;40.40;;;;;;5115471;28;20039;-82
2023/09/08 11:15:37;;;;;;;6.45;4.15;;;31.00;40.20;;;;;;5116049;28;20036;-83
2023/09/08 11:18:07;;;;;;;7.63;4.65;;;31.10;39.90;;;;;;5117616;28;20028;-82
2023/09/08 11:20:34;;;;;;;7.03;4.57;;;31.20;39.70;;;;;;5115614;28;20028;-82
2023/09/08 11:23:00;;;;;;;13.70;4.60;;;31.20;39.30;;;;;;5114662;28;20039;-81
2023/09/08 11:25:26;;;;;;;9.10;4.82;;;31.20;39.20;;;;;;5114877;28;20035;-84
2023/09/08 11:27:51;;;;;;;9.35;4.68;;;31.20;39.30;;;;;;5115233;28;20104;-82
2023/09/08 11:30:17;;;;;;;12.50;4.88;;;31.30;39.00;;;;;;5114757;28;20085;-80
2023/09/08 11:32:43;;;;;;;7.18;4.63;;;31.40;39.30;;;;;;5115685;28;20027;-81
2023/09/08 11:35:10;;;;;;;9.05;4.70;;;31.50;39.10;;;;;;5116426;28;20110;-82
2023/09/08 11:37:41;;;;;;;5.90;4.63;;;31.50;38.80;;;;;;5115419;28;20368;-82
2023/09/08 11:40:12;;;;;;;7.07;4.57;;;31.60;38.60;;;;;;5114574;28;20077;-84
2023/09/08 11:42:43;;;;;;;7.60;4.65;;;31.70;39.40;;;;;;5114508;28;20051;-82
2023/09/08 11:45:13;;;;;;;6.75;5.00;;;31.70;38.60;;;;;;5114897;28;20047;-81
2023/09/08 11:47:41;;;;;;;7.72;4.82;;;31.80;38.90;;;;;;5114824;28;20442;-83
2023/09/08 11:50:08;;;;;;;7.30;5.20;;;31.80;38.50;;;;;;5114765;28;20356;-81
2023/09/08 11:52:34;;;;;;;8.27;4.80;;;31.90;38.80;;;;;;5114928;28;20101;-82
2023/09/08 11:55:00;;;;;;;7.15;4.90;;;31.90;38.70;;;;;;5114772;28;20032;-81
2023/09/08 11:57:25;;;;;;;8.75;4.82;;;32.00;38.50;;;;;;5114814;28;20529;-82
2023/09/08 11:59:52;;;;;;;9.35;5.13;;;32.10;38.20;;;;;;5115976;28;20035;-82
2023/09/08 12:02:17;;;;;;;11.32;4.93;;;32.30;38.20;;;;;;5114495;28;20039;-81
2023/09/08 12:04:44;;;;;;;7.70;5.07;;;32.30;38.20;;;;;;5114573;28;20545;-81
2023/09/08 12:07:16;;;;;;;6.80;5.20;;;32.40;38.40;;;;;;5114482;28;20071;-82
2023/09/08 12:09:42;;;;;;;8.32;5.13;;;32.30;38.60;;;;;;5115677;28;20031;-83
2023/09/08 12:12:12;;;;;;;10.63;5.57;;;32.40;38.60;;;;;;5121290;28;20125;-83
2023/09/08 12:14:44;;;;;;;11.35;5.43;;;32.50;38.50;;;;;;5114246;28;20047;-81
2023/09/08 12:17:10;;;;;;;8.18;5.18;;;32.50;38.50;;;;;;5114239;28;20118;-81
2023/09/08 12:19:36;;;;;;;8.23;5.97;;;32.60;38.60;;;;;;5095515;28;20503;-84
2023/09/08 12:22:04;;;;;;;8.55;5.28;;;32.70;38.80;;;;;;5114255;28;20088;-81
2023/09/08 12:24:56;;;;;;;8.10;7.13;;;32.70;38.60;;;;;;5112718;28;20451;-81
2023/09/08 12:27:22;;;;;;;9.63;5.60;;;32.70;38.60;;;;;;5113607;28;20032;-82
2023/09/08 12:30:00;;;;;;;8.35;4.85;;;32.70;38.30;;;;;;5095641;28;20039;-82
2023/09/08 12:32:28;;;;;;;10.70;4.90;;;32.70;38.20;;;;;;5113499;28;20123;-81
2023/09/08 12:34:54;;;;;;;9.52;5.10;;;32.80;38.60;;;;;;5113604;28;20072;-82
2023/09/08 12:37:27;;;;;;;5.75;4.40;;;32.90;39.00;;;;;;5113832;28;20122;-83
2023/09/08 12:39:53;;;;;;;;;;;32.90;39.50;;;;;;5114436;28;20095;-82
2023/09/08 12:42:19;;;;;;;9.23;4.90;;;32.90;39.20;;;;;;5116798;28;20363;-81
2023/09/08 12:44:45;;;;;;;9.65;4.93;;;33.00;39.40;;;;;;5126767;28;20040;-81